createdAt,value
2018-04-12T00:00:39.921Z,100379.19
2018-04-12T00:03:05.995Z,100375.66
2018-04-12T00:05:32.016Z,100375.00
2018-04-12T00:07:58.062Z,100370.18
2018-04-12T00:10:24.075Z,100368.02
2018-04-12T00:12:50.133Z,100358.75
2018-04-12T00:15:16.111Z,100361.70
2018-04-12T00:17:42.157Z,100355.93
2018-04-12T00:20:08.168Z,100352.56
2018-04-12T00:22:34.172Z,100351.82
2018-04-12T00:25:00.199Z,100349.28
2018-04-12T00:27:26.204Z,100354.14
2018-04-12T00:29:52.200Z,100344.52
2018-04-12T00:32:18.266Z,100339.55
2018-04-12T00:34:44.253Z,100336.91
2018-04-12T00:37:10.236Z,100338.02
2018-04-12T00:39:36.432Z,100337.92
2018-04-12T00:42:02.413Z,100339.63
2018-04-12T00:44:35.433Z,100341.17
2018-04-12T00:47:01.516Z,100334.68
2018-04-12T00:49:27.649Z,100336.52
2018-04-12T00:51:53.632Z,100335.09
2018-04-12T00:54:19.628Z,100332.74
2018-04-12T00:56:45.671Z,100330.72
2018-04-12T00:59:12.479Z,100329.95
2018-04-12T01:01:38.508Z,100329.80
2018-04-12T01:04:04.557Z,100328.97
2018-04-12T01:06:30.605Z,100329.30
2018-04-12T01:08:56.604Z,100336.59
2018-04-12T01:11:22.609Z,100332.92
2018-04-12T01:13:48.661Z,100334.92
2018-04-12T01:16:14.744Z,100330.59
2018-04-12T01:18:40.923Z,100328.30
2018-04-12T01:21:06.924Z,100327.05
2018-04-12T01:23:32.901Z,100331.27
2018-04-12T01:25:59.045Z,100325.09
2018-04-12T01:28:25.165Z,100326.90
2018-04-12T01:30:51.172Z,100327.25
2018-04-12T01:33:17.173Z,100324.72
2018-04-12T01:35:44.104Z,100319.23
2018-04-12T01:38:10.139Z,100318.02
2018-04-12T01:40:36.183Z,100315.78
2018-04-12T01:43:02.241Z,100317.06
2018-04-12T01:45:28.269Z,100316.02
2018-04-12T01:47:54.278Z,100318.36
2018-04-12T01:50:20.317Z,100312.88
2018-04-12T01:52:46.376Z,100311.48
2018-04-12T01:55:12.449Z,100310.07
2018-04-12T01:57:38.485Z,100304.16
2018-04-12T02:00:04.495Z,100302.82
2018-04-12T02:02:30.505Z,100304.38
2018-04-12T02:04:56.509Z,100301.21
2018-04-12T02:07:22.509Z,100301.73
2018-04-12T02:09:48.494Z,100302.08
2018-04-12T02:12:14.490Z,100301.42
2018-04-12T02:14:40.503Z,100296.09
2018-04-12T02:17:06.481Z,100302.11
2018-04-12T02:19:32.498Z,100298.80
2018-04-12T02:21:58.494Z,100297.64
2018-04-12T02:24:24.688Z,100292.30
2018-04-12T02:26:50.718Z,100294.73
2018-04-12T02:29:17.045Z,100292.56
2018-04-12T02:31:43.734Z,100292.07
2018-04-12T02:34:09.745Z,100293.97
2018-04-12T02:36:35.768Z,100293.22
2018-04-12T02:39:01.806Z,100286.99
2018-04-12T02:41:27.844Z,100285.49
2018-04-12T02:43:53.871Z,100285.83
2018-04-12T02:46:19.968Z,100291.34
2018-04-12T02:48:45.980Z,100282.08
2018-04-12T02:51:12.001Z,100279.49
2018-04-12T02:53:38.072Z,100275.41
2018-04-12T02:56:04.493Z,100280.27
2018-04-12T02:58:30.529Z,100276.77
2018-04-12T03:00:56.626Z,100280.19
2018-04-12T03:03:22.660Z,100272.93
2018-04-12T03:05:48.695Z,100272.92
2018-04-12T03:08:14.710Z,100280.02
2018-04-12T03:10:40.751Z,100280.52
2018-04-12T03:13:06.772Z,100278.17
2018-04-12T03:15:33.410Z,100269.33
2018-04-12T03:17:59.524Z,100271.08
2018-04-12T03:20:25.525Z,100273.58
2018-04-12T03:22:51.598Z,100268.66
2018-04-12T03:25:17.667Z,100274.69
2018-04-12T03:27:43.710Z,100269.52
2018-04-12T03:30:09.734Z,100268.77
2018-04-12T03:32:35.784Z,100269.84
2018-04-12T03:35:01.931Z,100262.84
2018-04-12T03:37:27.954Z,100263.09
2018-04-12T03:39:54.030Z,100258.91
2018-04-12T03:42:20.051Z,100259.75
2018-04-12T03:44:46.057Z,100251.16
2018-04-12T03:47:12.063Z,100259.41
2018-04-12T03:49:38.112Z,100264.91
2018-04-12T03:52:04.129Z,100257.73
2018-04-12T03:54:30.131Z,100258.22
2018-04-12T03:56:56.148Z,100260.41
2018-04-12T03:59:22.201Z,100255.48
2018-04-12T04:01:48.277Z,100247.30
2018-04-12T04:04:14.264Z,100241.95
2018-04-12T04:06:40.309Z,100240.04
2018-04-12T04:09:06.336Z,100244.77
2018-04-12T04:11:32.320Z,100230.77
2018-04-12T04:13:58.350Z,100225.84
2018-04-12T04:16:36.393Z,100226.77
2018-04-12T04:19:14.583Z,100234.92
2018-04-12T04:21:40.647Z,100233.33
2018-04-12T04:24:06.693Z,100235.00
2018-04-12T04:26:32.717Z,100237.23
2018-04-12T04:28:58.969Z,100229.73
2018-04-12T04:31:25.088Z,100231.97
2018-04-12T04:33:51.215Z,100226.37
2018-04-12T04:36:17.225Z,100219.95
2018-04-12T04:38:43.434Z,100221.52
2018-04-12T04:41:09.500Z,100214.88
2018-04-12T04:43:35.558Z,100211.76
2018-04-12T04:46:01.675Z,100208.44
2018-04-12T04:48:27.731Z,100212.08
2018-04-12T04:50:53.849Z,100209.71
2018-04-12T04:53:20.644Z,100207.39
2018-04-12T04:55:46.680Z,100210.39
2018-04-12T04:58:12.672Z,100209.32
2018-04-12T05:00:38.739Z,100205.73
2018-04-12T05:03:04.992Z,100203.98
2018-04-12T05:05:31.131Z,100210.06
2018-04-12T05:07:57.222Z,100204.65
2018-04-12T05:10:23.259Z,100206.73
2018-04-12T05:12:49.372Z,100201.88
2018-04-12T05:15:15.518Z,100200.03
2018-04-12T05:17:41.656Z,100200.94
2018-04-12T05:20:07.699Z,100202.20
2018-04-12T05:22:33.749Z,100198.44
2018-04-12T05:24:59.970Z,100197.20
2018-04-12T05:27:25.967Z,100202.87
2018-04-12T05:29:51.974Z,100203.56
2018-04-12T05:32:17.992Z,100201.97
2018-04-12T05:34:44.038Z,100198.73
2018-04-12T05:37:10.559Z,100193.73
2018-04-12T05:39:37.097Z,100200.50
2018-04-12T05:42:03.484Z,100193.73
2018-04-12T05:44:29.525Z,100202.55
2018-04-12T05:46:55.552Z,100195.84
2018-04-12T05:49:21.646Z,100192.11
2018-04-12T05:51:47.703Z,100184.47
2018-04-12T05:54:13.700Z,100182.13
2018-04-12T05:56:39.829Z,100188.38
2018-04-12T05:59:05.938Z,100187.41
2018-04-12T06:01:31.963Z,100187.42
2018-04-12T06:03:58.028Z,100189.02
2018-04-12T06:06:24.141Z,100188.68
2018-04-12T06:08:50.166Z,100183.69
2018-04-12T06:11:16.216Z,100184.03
2018-04-12T06:13:42.232Z,100182.11
2018-04-12T06:16:08.315Z,100175.20
2018-04-12T06:18:34.321Z,100179.13
2018-04-12T06:21:00.325Z,100182.63
2018-04-12T06:23:26.420Z,100194.38
2018-04-12T06:25:52.792Z,100183.20
2018-04-12T06:28:18.859Z,100175.06
2018-04-12T06:30:44.870Z,100186.30
2018-04-12T06:33:10.974Z,100175.89
2018-04-12T06:35:36.967Z,100174.37
2018-04-12T06:38:02.986Z,100188.12
2018-04-12T06:40:29.166Z,100182.13
2018-04-12T06:42:55.181Z,100183.95
2018-04-12T06:45:21.307Z,100187.47
2018-04-12T06:47:47.359Z,100193.55
2018-04-12T06:50:13.490Z,100186.80
2018-04-12T06:52:46.961Z,100183.70
2018-04-12T06:55:13.729Z,100184.80
2018-04-12T06:57:39.803Z,100185.47
2018-04-12T07:00:05.828Z,100180.38
2018-04-12T07:02:31.829Z,100184.27
2018-04-12T07:04:58.628Z,100184.09
2018-04-12T07:07:24.709Z,100180.92
2018-04-12T07:09:51.432Z,100178.16
2018-04-12T07:12:17.477Z,100175.41
2018-04-12T07:14:43.494Z,100174.24
2018-04-12T07:17:09.564Z,100180.63
2018-04-12T07:19:36.271Z,100196.63
2018-04-12T07:22:02.299Z,100200.47
2018-04-12T07:24:28.333Z,100197.13
2018-04-12T07:26:54.509Z,100192.80
2018-04-12T07:29:20.809Z,100184.34
2018-04-12T07:31:47.545Z,100189.10
2018-04-12T07:34:13.673Z,100188.34
2018-04-12T07:36:39.807Z,100191.04
2018-04-12T07:39:06.516Z,100195.79
2018-04-12T07:41:32.510Z,100189.68
2018-04-12T07:43:58.633Z,100190.86
2018-04-12T07:46:24.622Z,100202.36
2018-04-12T07:48:50.668Z,100195.54
2018-04-12T07:51:16.664Z,100184.32
2018-04-12T07:53:42.712Z,100186.86
2018-04-12T07:56:08.776Z,100191.47
2018-04-12T07:58:34.807Z,100182.60
2018-04-12T08:01:00.816Z,100188.84
2018-04-12T08:03:26.910Z,100179.78
2018-04-12T08:05:53.458Z,100181.92
2018-04-12T08:08:19.519Z,100176.67
2018-04-12T08:10:45.630Z,100174.02
2018-04-12T08:13:11.645Z,100174.49
2018-04-12T08:15:37.710Z,100162.13
2018-04-12T08:18:03.736Z,100163.02
2018-04-12T08:20:29.830Z,100168.06
2018-04-12T08:22:55.927Z,100161.19
2018-04-12T08:25:21.978Z,100157.77
2018-04-12T08:27:48.251Z,100159.70
2018-04-12T08:30:14.231Z,100164.34
2018-04-12T08:32:40.584Z,100163.53
2018-04-12T08:35:06.664Z,100157.94
2018-04-12T08:37:32.725Z,100156.19
2018-04-12T08:39:58.781Z,100166.03
2018-04-12T08:42:24.774Z,100157.50
2018-04-12T08:44:50.831Z,100154.92
2018-04-12T08:47:16.872Z,100155.20
2018-04-12T08:49:42.945Z,100153.73
2018-04-12T08:52:08.982Z,100149.51
2018-04-12T08:54:35.234Z,100159.41
2018-04-12T08:57:01.406Z,100165.27
2018-04-12T08:59:27.444Z,100159.53
2018-04-12T09:01:53.484Z,100152.16
2018-04-12T09:04:19.585Z,100158.25
2018-04-12T09:06:45.736Z,100159.20
2018-04-12T09:09:11.761Z,100153.70
2018-04-12T09:11:37.796Z,100153.86
2018-04-12T09:14:03.903Z,100144.52
2018-04-12T09:16:30.118Z,100143.11
2018-04-12T09:18:56.146Z,100150.22
2018-04-12T09:21:22.193Z,100143.67
2018-04-12T09:23:48.232Z,100142.47
2018-04-12T09:26:14.277Z,100133.33
2018-04-12T09:28:40.305Z,100129.59
2018-04-12T09:31:06.399Z,100132.58
2018-04-12T09:33:32.495Z,100125.77
2018-04-12T09:35:58.548Z,100126.30
2018-04-12T09:38:24.652Z,100121.41
2018-04-12T09:40:50.737Z,100117.24
2018-04-12T09:43:16.772Z,100117.75
2018-04-12T09:45:42.856Z,100112.24
2018-04-12T09:48:08.926Z,100117.28
2018-04-12T09:50:35.072Z,100107.67
2018-04-12T09:53:01.213Z,100104.48
2018-04-12T09:55:27.260Z,100107.39
2018-04-12T09:57:53.368Z,100108.00
2018-04-12T10:00:25.490Z,100102.63
2018-04-12T10:02:55.592Z,100101.84
2018-04-12T10:05:27.622Z,100108.09
2018-04-12T10:07:54.208Z,100103.23
2018-04-12T10:10:20.236Z,100107.81
2018-04-12T10:12:46.261Z,100100.19
2018-04-12T10:15:12.270Z,100100.19
2018-04-12T10:17:38.360Z,100096.91
2018-04-12T10:20:04.341Z,100105.00
2018-04-12T10:22:30.401Z,100105.08
2018-04-12T10:24:56.429Z,100103.78
2018-04-12T10:27:22.458Z,100093.16
2018-04-12T10:29:48.602Z,100094.87
2018-04-12T10:32:14.639Z,100094.87
2018-04-12T10:34:40.671Z,100086.41
2018-04-12T10:37:06.873Z,100088.41
2018-04-12T10:39:32.903Z,100089.79
2018-04-12T10:41:58.941Z,100079.83
2018-04-12T10:44:25.038Z,100071.19
2018-04-12T10:46:51.108Z,100071.73
2018-04-12T10:49:17.140Z,100066.31
2018-04-12T10:51:43.354Z,100065.17
2018-04-12T10:54:09.459Z,100060.94
2018-04-12T10:56:35.603Z,100065.70
2018-04-12T10:59:01.651Z,100061.45
2018-04-12T11:01:27.747Z,100064.55
2018-04-12T11:03:53.856Z,100061.27
2018-04-12T11:06:20.556Z,100056.44
2018-04-12T11:08:46.721Z,100061.33
2018-04-12T11:11:12.745Z,100054.80
2018-04-12T11:13:38.856Z,100048.54
2018-04-12T11:16:04.926Z,100049.76
2018-04-12T11:18:31.070Z,100044.77
2018-04-12T11:20:57.059Z,100037.66
2018-04-12T11:23:23.196Z,100038.89
2018-04-12T11:25:49.279Z,100037.91
2018-04-12T11:28:15.303Z,100033.19
2018-04-12T11:30:41.311Z,100029.42
2018-04-12T11:33:07.675Z,100030.34
2018-04-12T11:35:33.797Z,100029.48
2018-04-12T11:37:59.851Z,100031.06
2018-04-12T11:40:26.007Z,100027.19
2018-04-12T11:42:52.146Z,100028.51
2018-04-12T11:45:18.232Z,100027.09
2018-04-12T11:47:44.340Z,100023.65
2018-04-12T11:50:10.405Z,100019.77
2018-04-12T11:52:36.582Z,100026.54
2018-04-12T11:55:02.728Z,100017.69
2018-04-12T11:57:28.726Z,100019.87
2018-04-12T11:59:54.733Z,100027.73
2018-04-12T12:02:20.772Z,100026.05
2018-04-12T12:04:46.794Z,100025.59
2018-04-12T12:07:12.872Z,100027.13
2018-04-12T12:09:38.909Z,100025.69
2018-04-12T12:12:04.915Z,100026.11
2018-04-12T12:14:30.998Z,100023.66
2018-04-12T12:16:57.065Z,100022.38
2018-04-12T12:19:23.158Z,100019.47
2018-04-12T12:21:49.353Z,100022.49
2018-04-12T12:24:15.445Z,100019.91
2018-04-12T12:26:41.664Z,100030.28
2018-04-12T12:29:07.673Z,100026.11
2018-04-12T12:31:33.720Z,100028.06
2018-04-12T12:33:59.877Z,100032.45
2018-04-12T12:36:26.070Z,100033.98
2018-04-12T12:38:52.138Z,100032.47
2018-04-12T12:41:18.153Z,100038.51
2018-04-12T12:43:44.316Z,100047.75
2018-04-12T12:46:10.346Z,100047.78
2018-04-12T12:48:36.362Z,100050.98
2018-04-12T12:51:02.392Z,100053.89
2018-04-12T12:53:28.414Z,100048.48
2018-04-12T12:55:54.491Z,100047.02
2018-04-12T12:58:20.506Z,100041.75
2018-04-12T13:00:46.553Z,100036.41
2018-04-12T13:03:12.825Z,100032.38
2018-04-12T13:05:38.948Z,100043.05
2018-04-12T13:08:05.010Z,100039.06
2018-04-12T13:10:31.113Z,100030.69
2018-04-12T13:12:57.206Z,100038.03
2018-04-12T13:15:23.941Z,100027.34
2018-04-12T13:17:50.065Z,100034.44
2018-04-12T13:20:16.117Z,100038.81
2018-04-12T13:22:42.153Z,100041.04
2018-04-12T13:25:08.211Z,100050.05
2018-04-12T13:27:34.281Z,100042.03
2018-04-12T13:30:00.316Z,100046.98
2018-04-12T13:32:26.409Z,100039.45
2018-04-12T13:34:52.484Z,100037.56
2018-04-12T13:37:18.750Z,100033.67
2018-04-12T13:39:44.818Z,100033.45
2018-04-12T13:42:10.905Z,100039.00
2018-04-12T13:44:36.953Z,100030.75
2018-04-12T13:47:02.997Z,100031.30
2018-04-12T13:49:29.022Z,100028.07
2018-04-12T13:51:55.108Z,100029.86
2018-04-12T13:54:21.196Z,100028.36
2018-04-12T13:56:47.275Z,100027.19
2018-04-12T13:59:14.305Z,100023.36
2018-04-12T14:01:40.438Z,100032.07
2018-04-12T14:04:06.449Z,100020.80
2018-04-12T14:06:32.588Z,100020.55
2018-04-12T14:08:58.600Z,100017.16
2018-04-12T14:11:24.680Z,100018.85
2018-04-12T14:13:50.733Z,100011.83
2018-04-12T14:16:16.827Z,100000.32
2018-04-12T14:18:42.848Z,99996.20
2018-04-12T14:21:08.894Z,99989.57
2018-04-12T14:23:35.133Z,99990.74
2018-04-12T14:26:01.361Z,99976.13
2018-04-12T14:28:27.392Z,99968.61
2018-04-12T14:30:53.494Z,99966.27
2018-04-12T14:33:19.538Z,99964.58
2018-04-12T14:35:45.753Z,99961.31
2018-04-12T14:38:11.968Z,99956.15
2018-04-12T14:40:37.981Z,99954.34
2018-04-12T14:43:04.025Z,99943.13
2018-04-12T14:45:30.081Z,99945.41
2018-04-12T14:47:56.130Z,99932.41
2018-04-12T14:50:22.199Z,99927.20
2018-04-12T14:52:48.241Z,99923.10
2018-04-12T14:55:14.300Z,99914.98
2018-04-12T14:57:40.418Z,99909.14
2018-04-12T15:00:06.438Z,99906.05
2018-04-12T15:02:32.675Z,99911.36
2018-04-12T15:04:59.463Z,99915.92
2018-04-12T15:07:25.593Z,99923.06
2018-04-12T15:09:51.722Z,99922.22
2018-04-12T15:12:17.760Z,99916.92
2018-04-12T15:14:43.808Z,99916.73
2018-04-12T15:17:10.020Z,99920.05
2018-04-12T15:19:36.269Z,99932.69
2018-04-12T15:22:02.346Z,99930.41
2018-04-12T15:24:28.381Z,99943.22
2018-04-12T15:26:54.470Z,99949.24
2018-04-12T15:29:20.606Z,99952.23
2018-04-12T15:31:46.657Z,99949.76
2018-04-12T15:34:12.753Z,99958.50
2018-04-12T15:36:38.806Z,99964.20
2018-04-12T15:39:05.925Z,99968.11
2018-04-12T15:41:32.158Z,99974.41
2018-04-12T15:43:58.202Z,99973.16
2018-04-12T15:46:24.288Z,99976.35
2018-04-12T15:48:50.386Z,99980.39
2018-04-12T15:51:23.366Z,99973.05
2018-04-12T15:53:49.372Z,99969.28
2018-04-12T15:56:15.540Z,99957.41
2018-04-12T15:58:41.758Z,99942.14
2018-04-12T16:01:08.336Z,99941.66
2018-04-12T16:03:34.430Z,99926.16
2018-04-12T16:06:00.509Z,99920.46
2018-04-12T16:08:26.560Z,99932.97
2018-04-12T16:10:52.595Z,99942.27
2018-04-12T16:13:18.631Z,99949.08
2018-04-12T16:15:44.741Z,99959.49
2018-04-12T16:18:10.795Z,99956.80
2018-04-12T16:20:36.862Z,99954.72
2018-04-12T16:23:02.940Z,99953.76
2018-04-12T16:25:29.017Z,99947.97
2018-04-12T16:27:55.165Z,99951.80
2018-04-12T16:30:21.216Z,99948.60
2018-04-12T16:32:47.271Z,99949.52
2018-04-12T16:35:13.299Z,99945.41
2018-04-12T16:37:39.377Z,99942.96
2018-04-12T16:40:05.394Z,99930.60
2018-04-12T16:42:31.484Z,99924.83
2018-04-12T16:44:57.583Z,99928.33
2018-04-12T16:47:23.669Z,99927.28
2018-04-12T16:49:49.841Z,99922.22
2018-04-12T16:52:15.944Z,99923.14
2018-04-12T16:54:41.995Z,99917.66
2018-04-12T16:57:08.120Z,99921.36
2018-04-12T16:59:34.247Z,99920.72
2018-04-12T17:02:00.267Z,99925.77
2018-04-12T17:04:26.294Z,99920.59
2018-04-12T17:06:52.453Z,99924.84
2018-04-12T17:09:18.467Z,99927.98
2018-04-12T17:11:44.508Z,99938.88
2018-04-12T17:14:10.574Z,99938.36
2018-04-12T17:16:36.706Z,99934.75
2018-04-12T17:19:02.712Z,99928.11
2018-04-12T17:21:28.772Z,99935.57
2018-04-12T17:23:54.812Z,99934.23
2018-04-12T17:26:20.897Z,99932.67
2018-04-12T17:28:46.932Z,99930.28
2018-04-12T17:31:12.984Z,99927.27
2018-04-12T17:33:39.225Z,99917.16
2018-04-12T17:36:05.276Z,99921.70
2018-04-12T17:38:31.310Z,99924.58
2018-04-12T17:40:57.437Z,99922.17
2018-04-12T17:43:23.573Z,99928.05
2018-04-12T17:45:49.737Z,99926.67
2018-04-12T17:48:15.784Z,99935.10
2018-04-12T17:50:41.875Z,99939.16
2018-04-12T17:53:15.600Z,99942.94
2018-04-12T17:55:41.744Z,99944.34
2018-04-12T17:58:07.769Z,99952.05
2018-04-12T18:00:33.898Z,99949.05
2018-04-12T18:03:00.945Z,99954.02
2018-04-12T18:05:27.034Z,99956.37
2018-04-12T18:07:53.221Z,99958.92
2018-04-12T18:10:19.288Z,99958.10
2018-04-12T18:12:45.373Z,99967.98
2018-04-12T18:15:11.546Z,99968.66
2018-04-12T18:17:37.613Z,99976.64
2018-04-12T18:20:03.711Z,99984.31
2018-04-12T18:22:29.722Z,99976.97
2018-04-12T18:24:55.835Z,99976.39
2018-04-12T18:27:22.028Z,99987.75
2018-04-12T18:29:48.201Z,99997.14
2018-04-12T18:32:14.275Z,99993.27
2018-04-12T18:34:40.332Z,99995.88
2018-04-12T18:37:06.419Z,100003.92
2018-04-12T18:39:32.629Z,100013.27
2018-04-12T18:41:58.715Z,100018.20
2018-04-12T18:44:24.916Z,100027.72
2018-04-12T18:46:50.948Z,100031.61
2018-04-12T18:49:17.020Z,100031.66
2018-04-12T18:51:43.073Z,100030.09
2018-04-12T18:54:09.203Z,100041.33
2018-04-12T18:56:35.393Z,100048.20
2018-04-12T18:59:01.497Z,100050.47
2018-04-12T19:01:27.780Z,100055.23
2018-04-12T19:03:53.864Z,100052.19
2018-04-12T19:06:20.038Z,100045.86
2018-04-12T19:08:46.225Z,100029.14
2018-04-12T19:11:12.349Z,100030.67
2018-04-12T19:13:38.397Z,100037.23
2018-04-12T19:16:04.483Z,100028.45
2018-04-12T19:18:30.575Z,100035.85
2018-04-12T19:20:56.575Z,100029.94
2018-04-12T19:23:22.611Z,100036.77
2018-04-12T19:25:48.703Z,100037.15
2018-04-12T19:28:14.772Z,100041.66
2018-04-12T19:30:40.805Z,100045.77
2018-04-12T19:33:09.511Z,100051.64
2018-04-12T19:35:35.612Z,100054.78
2018-04-12T19:38:01.693Z,100050.44
2018-04-12T19:40:27.936Z,100047.35
2018-04-12T19:42:54.088Z,100045.09
2018-04-12T19:45:20.211Z,100052.80
2018-04-12T19:47:46.269Z,100046.61
2018-04-12T19:50:12.364Z,100045.31
2018-04-12T19:52:38.571Z,100045.66
2018-04-12T19:55:04.723Z,100045.42
2018-04-12T19:57:30.774Z,100042.20
2018-04-12T19:59:56.823Z,100047.83
2018-04-12T20:02:22.904Z,100043.12
2018-04-12T20:04:48.989Z,100039.83
2018-04-12T20:07:15.077Z,100041.81
2018-04-12T20:09:41.191Z,100040.84
2018-04-12T20:12:07.225Z,100039.63
2018-04-12T20:14:33.330Z,100040.51
2018-04-12T20:16:59.373Z,100040.64
2018-04-12T20:19:26.230Z,100040.50
2018-04-12T20:21:52.311Z,100033.44
2018-04-12T20:24:18.395Z,100033.18
2018-04-12T20:26:44.494Z,100037.47
2018-04-12T20:29:10.572Z,100039.67
2018-04-12T20:31:36.681Z,100036.53
2018-04-12T20:34:02.804Z,100044.92
2018-04-12T20:36:28.896Z,100045.19
2018-04-12T20:38:55.002Z,100046.56
2018-04-12T20:41:21.104Z,100035.81
2018-04-12T20:43:47.279Z,100039.59
2018-04-12T20:46:13.427Z,100047.80
2018-04-12T20:48:39.428Z,100047.27
2018-04-12T20:51:05.547Z,100052.89
2018-04-12T20:53:31.677Z,100053.90
2018-04-12T20:55:57.869Z,100056.52
2018-04-12T20:58:23.996Z,100056.70
2018-04-12T21:00:50.068Z,100064.80
2018-04-12T21:03:16.154Z,100065.77
2018-04-12T21:05:42.283Z,100069.92
2018-04-12T21:08:08.302Z,100052.39
2018-04-12T21:10:34.313Z,100053.25
2018-04-12T21:13:00.407Z,100056.46
2018-04-12T21:15:26.885Z,100047.05
2018-04-12T21:17:52.980Z,100059.52
2018-04-12T21:20:19.009Z,100056.25
2018-04-12T21:22:45.075Z,100061.95
2018-04-12T21:25:11.146Z,100063.41
2018-04-12T21:27:37.230Z,100058.69
2018-04-12T21:30:03.293Z,100060.87
2018-04-12T21:32:30.156Z,100056.39
2018-04-12T21:34:56.203Z,100064.76
2018-04-12T21:37:22.377Z,100058.05
2018-04-12T21:39:48.376Z,100061.16
2018-04-12T21:42:14.393Z,100061.95
2018-04-12T21:44:40.496Z,100068.30
2018-04-12T21:47:06.544Z,100060.39
2018-04-12T21:49:32.652Z,100062.55
2018-04-12T21:51:58.661Z,100064.82
2018-04-12T21:54:24.705Z,100064.42
2018-04-12T21:56:50.954Z,100062.30
2018-04-12T21:59:17.026Z,100061.08
2018-04-12T22:01:43.112Z,100059.67
2018-04-12T22:04:09.156Z,100065.44
2018-04-12T22:06:35.181Z,100067.63
2018-04-12T22:09:01.224Z,100064.47
2018-04-12T22:11:27.607Z,100074.66
2018-04-12T22:13:53.652Z,100076.87
2018-04-12T22:16:19.946Z,100070.70
2018-04-12T22:18:46.029Z,100075.14
2018-04-12T22:21:12.071Z,100079.91
2018-04-12T22:23:38.121Z,100081.25
2018-04-12T22:26:04.812Z,100095.77
2018-04-12T22:28:31.147Z,100095.36
2018-04-12T22:30:57.176Z,100097.45
2018-04-12T22:33:23.195Z,100104.80
2018-04-12T22:35:49.314Z,100106.88
2018-04-12T22:38:15.401Z,100099.74
2018-04-12T22:40:41.436Z,100111.09
2018-04-12T22:43:07.552Z,100108.34
2018-04-12T22:45:33.612Z,100107.67
2018-04-12T22:47:59.634Z,100112.34
2018-04-12T22:50:25.675Z,100113.18
2018-04-12T22:52:51.702Z,100115.52
2018-04-12T22:55:17.930Z,100116.27
2018-04-12T22:57:43.968Z,100120.60
2018-04-12T23:00:10.144Z,100120.27
2018-04-12T23:02:36.175Z,100123.05
2018-04-12T23:05:02.209Z,100129.30
2018-04-12T23:07:28.397Z,100130.14
2018-04-12T23:09:54.427Z,100131.80
2018-04-12T23:12:20.473Z,100133.63
2018-04-12T23:14:46.504Z,100132.05
2018-04-12T23:17:12.533Z,100132.37
2018-04-12T23:19:38.530Z,100132.71
2018-04-12T23:22:04.571Z,100137.88
2018-04-12T23:24:30.557Z,100135.04
2018-04-12T23:26:56.668Z,100140.37
2018-04-12T23:29:22.654Z,100132.70
2018-04-12T23:31:48.682Z,100132.80
2018-04-12T23:34:14.776Z,100132.46
2018-04-12T23:36:40.875Z,100124.05
2018-04-12T23:39:06.860Z,100127.05
2018-04-12T23:41:32.874Z,100129.28
2018-04-12T23:43:58.915Z,100132.86
2018-04-12T23:46:25.021Z,100135.18
2018-04-12T23:48:51.058Z,100144.50
2018-04-12T23:51:17.075Z,100136.00
2018-04-12T23:53:43.979Z,100138.74
2018-04-12T23:56:10.107Z,100151.92
2018-04-12T23:58:36.216Z,100145.33
